sensor_id;sensor_type;location;lat;lon;timestamp;P1;durP1;ratioP1;P2;durP2;ratioP2
10894;SDS011;5500;49.886;8.074;2023-07-31T00:01:58;5.27;;;1.97;;
10894;SDS011;5500;49.886;8.074;2023-07-31T00:04:26;3.63;;;1.80;;
10894;SDS011;5500;49.886;8.074;2023-07-31T00:06:53;6.63;;;2.10;;
10894;SDS011;5500;49.886;8.074;2023-07-31T00:09:26;5.03;;;2.10;;
10894;SDS011;5500;49.886;8.074;2023-07-31T00:11:54;2.97;;;2.03;;
10894;SDS011;5500;49.886;8.074;2023-07-31T00:14:23;4.20;;;2.30;;
10894;SDS011;5500;49.886;8.074;2023-07-31T00:16:51;4.07;;;2.20;;
10894;SDS011;5500;49.886;8.074;2023-07-31T00:19:19;4.40;;;2.10;;
10894;SDS011;5500;49.886;8.074;2023-07-31T00:21:47;4.40;;;2.17;;
10894;SDS011;5500;49.886;8.074;2023-07-31T00:24:14;4.20;;;2.00;;
10894;SDS011;5500;49.886;8.074;2023-07-31T00:26:42;4.80;;;1.97;;
10894;SDS011;5500;49.886;8.074;2023-07-31T00:29:10;3.43;;;2.10;;
10894;SDS011;5500;49.886;8.074;2023-07-31T00:31:39;5.90;;;2.83;;
10894;SDS011;5500;49.886;8.074;2023-07-31T00:34:07;4.00;;;2.10;;
10894;SDS011;5500;49.886;8.074;2023-07-31T00:36:34;5.03;;;2.27;;
10894;SDS011;5500;49.886;8.074;2023-07-31T00:39:03;5.73;;;2.20;;
10894;SDS011;5500;49.886;8.074;2023-07-31T00:41:31;3.73;;;1.90;;
10894;SDS011;5500;49.886;8.074;2023-07-31T00:43:59;6.20;;;2.20;;
10894;SDS011;5500;49.886;8.074;2023-07-31T00:46:27;5.20;;;2.27;;
10894;SDS011;5500;49.886;8.074;2023-07-31T00:48:56;3.87;;;2.10;;
10894;SDS011;5500;49.886;8.074;2023-07-31T00:51:24;7.93;;;2.20;;
10894;SDS011;5500;49.886;8.074;2023-07-31T00:53:51;4.93;;;2.20;;
10894;SDS011;5500;49.886;8.074;2023-07-31T00:56:20;5.10;;;2.43;;
10894;SDS011;5500;49.886;8.074;2023-07-31T00:58:48;6.47;;;2.53;;
10894;SDS011;5500;49.886;8.074;2023-07-31T01:01:16;3.87;;;2.33;;
10894;SDS011;5500;49.886;8.074;2023-07-31T01:03:44;6.80;;;2.23;;
10894;SDS011;5500;49.886;8.074;2023-07-31T01:06:15;3.27;;;2.13;;
10894;SDS011;5500;49.886;8.074;2023-07-31T01:08:48;5.97;;;1.97;;
10894;SDS011;5500;49.886;8.074;2023-07-31T01:11:23;5.87;;;2.53;;
10894;SDS011;5500;49.886;8.074;2023-07-31T01:13:57;4.33;;;2.37;;
10894;SDS011;5500;49.886;8.074;2023-07-31T01:16:25;4.10;;;2.40;;
10894;SDS011;5500;49.886;8.074;2023-07-31T01:18:53;4.70;;;2.30;;
10894;SDS011;5500;49.886;8.074;2023-07-31T01:21:27;3.60;;;1.87;;
10894;SDS011;5500;49.886;8.074;2023-07-31T01:24:09;4.03;;;2.37;;
10894;SDS011;5500;49.886;8.074;2023-07-31T01:26:47;3.50;;;2.10;;
10894;SDS011;5500;49.886;8.074;2023-07-31T01:29:17;5.60;;;2.23;;
10894;SDS011;5500;49.886;8.074;2023-07-31T01:31:51;4.13;;;2.13;;
10894;SDS011;5500;49.886;8.074;2023-07-31T01:34:20;5.00;;;2.50;;
10894;SDS011;5500;49.886;8.074;2023-07-31T01:36:49;5.27;;;2.43;;
10894;SDS011;5500;49.886;8.074;2023-07-31T01:39:19;6.23;;;2.33;;
10894;SDS011;5500;49.886;8.074;2023-07-31T01:41:49;7.80;;;2.47;;
10894;SDS011;5500;49.886;8.074;2023-07-31T01:44:17;5.20;;;2.00;;
10894;SDS011;5500;49.886;8.074;2023-07-31T01:46:44;6.43;;;2.60;;
10894;SDS011;5500;49.886;8.074;2023-07-31T01:49:12;5.67;;;2.77;;
10894;SDS011;5500;49.886;8.074;2023-07-31T01:51:40;6.63;;;2.37;;
10894;SDS011;5500;49.886;8.074;2023-07-31T01:54:08;4.07;;;2.20;;
10894;SDS011;5500;49.886;8.074;2023-07-31T01:56:37;4.50;;;2.70;;
10894;SDS011;5500;49.886;8.074;2023-07-31T01:59:06;7.70;;;2.77;;
10894;SDS011;5500;49.886;8.074;2023-07-31T02:01:34;6.00;;;2.30;;
10894;SDS011;5500;49.886;8.074;2023-07-31T02:04:02;4.77;;;2.47;;
10894;SDS011;5500;49.886;8.074;2023-07-31T02:06:31;4.43;;;2.60;;
10894;SDS011;5500;49.886;8.074;2023-07-31T02:08:59;7.70;;;2.70;;
10894;SDS011;5500;49.886;8.074;2023-07-31T02:11:26;6.33;;;2.63;;
10894;SDS011;5500;49.886;8.074;2023-07-31T02:13:54;7.17;;;2.80;;
10894;SDS011;5500;49.886;8.074;2023-07-31T02:16:23;6.87;;;2.77;;
10894;SDS011;5500;49.886;8.074;2023-07-31T02:18:51;6.07;;;2.63;;
10894;SDS011;5500;49.886;8.074;2023-07-31T02:21:19;7.10;;;2.27;;
10894;SDS011;5500;49.886;8.074;2023-07-31T02:23:47;5.27;;;2.17;;
10894;SDS011;5500;49.886;8.074;2023-07-31T02:26:15;8.27;;;2.57;;
10894;SDS011;5500;49.886;8.074;2023-07-31T02:28:42;5.87;;;2.83;;
10894;SDS011;5500;49.886;8.074;2023-07-31T02:31:10;3.30;;;2.20;;
10894;SDS011;5500;49.886;8.074;2023-07-31T02:33:39;4.00;;;2.67;;
10894;SDS011;5500;49.886;8.074;2023-07-31T02:36:07;5.13;;;2.40;;
10894;SDS011;5500;49.886;8.074;2023-07-31T02:38:35;4.63;;;2.57;;
10894;SDS011;5500;49.886;8.074;2023-07-31T02:41:03;5.77;;;2.70;;
10894;SDS011;5500;49.886;8.074;2023-07-31T02:43:30;8.17;;;2.60;;
10894;SDS011;5500;49.886;8.074;2023-07-31T02:45:59;3.93;;;2.53;;
10894;SDS011;5500;49.886;8.074;2023-07-31T02:48:27;7.57;;;2.97;;
10894;SDS011;5500;49.886;8.074;2023-07-31T02:50:56;6.87;;;2.97;;
10894;SDS011;5500;49.886;8.074;2023-07-31T02:53:23;6.10;;;2.57;;
10894;SDS011;5500;49.886;8.074;2023-07-31T02:55:51;5.40;;;2.53;;
10894;SDS011;5500;49.886;8.074;2023-07-31T02:58:19;5.07;;;2.50;;
10894;SDS011;5500;49.886;8.074;2023-07-31T03:00:47;5.27;;;2.60;;
10894;SDS011;5500;49.886;8.074;2023-07-31T03:03:14;7.73;;;2.87;;
10894;SDS011;5500;49.886;8.074;2023-07-31T03:05:42;9.30;;;3.03;;
10894;SDS011;5500;49.886;8.074;2023-07-31T03:08:11;5.37;;;2.73;;
10894;SDS011;5500;49.886;8.074;2023-07-31T03:10:39;7.10;;;3.13;;
10894;SDS011;5500;49.886;8.074;2023-07-31T03:13:07;5.63;;;2.70;;
10894;SDS011;5500;49.886;8.074;2023-07-31T03:15:34;6.87;;;3.07;;
10894;SDS011;5500;49.886;8.074;2023-07-31T03:18:02;6.20;;;2.70;;
10894;SDS011;5500;49.886;8.074;2023-07-31T03:20:31;3.60;;;2.77;;
10894;SDS011;5500;49.886;8.074;2023-07-31T03:22:58;5.67;;;2.60;;
10894;SDS011;5500;49.886;8.074;2023-07-31T03:25:27;6.93;;;3.20;;
10894;SDS011;5500;49.886;8.074;2023-07-31T03:27:55;7.57;;;3.13;;
10894;SDS011;5500;49.886;8.074;2023-07-31T03:30:23;8.10;;;2.63;;
10894;SDS011;5500;49.886;8.074;2023-07-31T03:32:51;5.23;;;2.57;;
10894;SDS011;5500;49.886;8.074;2023-07-31T03:35:18;5.63;;;3.00;;
10894;SDS011;5500;49.886;8.074;2023-07-31T03:37:46;6.80;;;2.83;;
10894;SDS011;5500;49.886;8.074;2023-07-31T03:40:14;5.40;;;3.13;;
10894;SDS011;5500;49.886;8.074;2023-07-31T03:42:43;8.03;;;2.93;;
10894;SDS011;5500;49.886;8.074;2023-07-31T03:45:11;5.23;;;2.23;;
10894;SDS011;5500;49.886;8.074;2023-07-31T03:47:39;7.87;;;3.00;;
10894;SDS011;5500;49.886;8.074;2023-07-31T03:50:07;6.73;;;2.50;;
10894;SDS011;5500;49.886;8.074;2023-07-31T03:52:35;4.33;;;2.67;;
10894;SDS011;5500;49.886;8.074;2023-07-31T03:55:03;4.80;;;2.80;;
10894;SDS011;5500;49.886;8.074;2023-07-31T03:57:31;6.43;;;3.30;;
10894;SDS011;5500;49.886;8.074;2023-07-31T04:00:00;5.97;;;3.20;;
10894;SDS011;5500;49.886;8.074;2023-07-31T04:02:28;5.97;;;2.63;;
10894;SDS011;5500;49.886;8.074;2023-07-31T04:04:56;7.87;;;2.80;;
10894;SDS011;5500;49.886;8.074;2023-07-31T04:07:24;4.73;;;2.57;;
10894;SDS011;5500;49.886;8.074;2023-07-31T04:09:51;6.23;;;3.30;;
10894;SDS011;5500;49.886;8.074;2023-07-31T04:12:19;6.03;;;2.60;;
10894;SDS011;5500;49.886;8.074;2023-07-31T04:14:47;3.97;;;2.60;;
10894;SDS011;5500;49.886;8.074;2023-07-31T04:17:16;5.53;;;2.57;;
10894;SDS011;5500;49.886;8.074;2023-07-31T04:19:44;8.33;;;2.87;;
10894;SDS011;5500;49.886;8.074;2023-07-31T04:22:12;4.60;;;2.93;;
10894;SDS011;5500;49.886;8.074;2023-07-31T04:24:40;9.47;;;3.37;;
10894;SDS011;5500;49.886;8.074;2023-07-31T04:27:07;5.13;;;2.40;;
10894;SDS011;5500;49.886;8.074;2023-07-31T04:29:35;6.80;;;2.93;;
10894;SDS011;5500;49.886;8.074;2023-07-31T04:32:03;7.13;;;3.10;;
10894;SDS011;5500;49.886;8.074;2023-07-31T04:34:32;7.10;;;3.17;;
10894;SDS011;5500;49.886;8.074;2023-07-31T04:37:00;4.70;;;3.03;;
10894;SDS011;5500;49.886;8.074;2023-07-31T04:39:28;5.63;;;3.10;;
10894;SDS011;5500;49.886;8.074;2023-07-31T04:41:56;10.10;;;2.83;;
10894;SDS011;5500;49.886;8.074;2023-07-31T04:44:23;7.80;;;3.23;;
10894;SDS011;5500;49.886;8.074;2023-07-31T04:46:51;7.60;;;3.00;;
10894;SDS011;5500;49.886;8.074;2023-07-31T04:49:19;8.53;;;3.20;;
10894;SDS011;5500;49.886;8.074;2023-07-31T04:51:48;5.50;;;3.17;;
10894;SDS011;5500;49.886;8.074;2023-07-31T04:54:15;5.30;;;2.93;;
10894;SDS011;5500;49.886;8.074;2023-07-31T04:56:43;7.87;;;3.13;;
10894;SDS011;5500;49.886;8.074;2023-07-31T04:59:11;5.77;;;2.90;;
10894;SDS011;5500;49.886;8.074;2023-07-31T05:01:38;3.80;;;2.50;;
10894;SDS011;5500;49.886;8.074;2023-07-31T05:04:07;5.50;;;3.00;;
10894;SDS011;5500;49.886;8.074;2023-07-31T05:06:34;4.50;;;2.73;;
10894;SDS011;5500;49.886;8.074;2023-07-31T05:09:04;6.37;;;2.67;;
10894;SDS011;5500;49.886;8.074;2023-07-31T05:11:32;6.53;;;3.57;;
10894;SDS011;5500;49.886;8.074;2023-07-31T05:13:59;5.70;;;2.90;;
10894;SDS011;5500;49.886;8.074;2023-07-31T05:16:27;7.10;;;3.50;;
10894;SDS011;5500;49.886;8.074;2023-07-31T05:18:56;5.43;;;2.83;;
10894;SDS011;5500;49.886;8.074;2023-07-31T05:21:23;6.30;;;2.87;;
10894;SDS011;5500;49.886;8.074;2023-07-31T05:23:51;4.27;;;2.80;;
10894;SDS011;5500;49.886;8.074;2023-07-31T05:26:20;6.50;;;2.80;;
10894;SDS011;5500;49.886;8.074;2023-07-31T05:28:48;5.43;;;2.70;;
10894;SDS011;5500;49.886;8.074;2023-07-31T05:31:15;5.60;;;3.20;;
10894;SDS011;5500;49.886;8.074;2023-07-31T05:33:43;5.70;;;2.90;;
10894;SDS011;5500;49.886;8.074;2023-07-31T05:36:11;6.20;;;3.00;;
10894;SDS011;5500;49.886;8.074;2023-07-31T05:38:39;9.80;;;2.87;;
10894;SDS011;5500;49.886;8.074;2023-07-31T05:41:08;6.80;;;3.10;;
10894;SDS011;5500;49.886;8.074;2023-07-31T05:43:37;3.90;;;2.33;;
10894;SDS011;5500;49.886;8.074;2023-07-31T05:46:05;5.60;;;2.70;;
10894;SDS011;5500;49.886;8.074;2023-07-31T05:48:35;7.40;;;2.87;;
10894;SDS011;5500;49.886;8.074;2023-07-31T05:51:03;5.73;;;2.87;;
10894;SDS011;5500;49.886;8.074;2023-07-31T05:53:30;5.77;;;3.10;;
10894;SDS011;5500;49.886;8.074;2023-07-31T05:55:58;5.77;;;3.33;;
10894;SDS011;5500;49.886;8.074;2023-07-31T05:58:26;6.63;;;2.90;;
10894;SDS011;5500;49.886;8.074;2023-07-31T06:00:55;5.00;;;2.30;;
10894;SDS011;5500;49.886;8.074;2023-07-31T06:03:23;6.37;;;2.30;;
10894;SDS011;5500;49.886;8.074;2023-07-31T06:05:50;6.20;;;2.93;;
10894;SDS011;5500;49.886;8.074;2023-07-31T06:08:18;5.23;;;2.90;;
10894;SDS011;5500;49.886;8.074;2023-07-31T06:10:46;6.67;;;3.27;;
10894;SDS011;5500;49.886;8.074;2023-07-31T06:13:14;6.93;;;3.13;;
10894;SDS011;5500;49.886;8.074;2023-07-31T06:15:41;7.63;;;3.13;;
10894;SDS011;5500;49.886;8.074;2023-07-31T06:18:10;8.97;;;3.00;;
10894;SDS011;5500;49.886;8.074;2023-07-31T06:20:39;5.73;;;2.67;;
10894;SDS011;5500;49.886;8.074;2023-07-31T06:23:07;6.30;;;3.00;;
10894;SDS011;5500;49.886;8.074;2023-07-31T06:25:35;5.63;;;2.97;;
10894;SDS011;5500;49.886;8.074;2023-07-31T06:28:03;6.57;;;3.50;;
10894;SDS011;5500;49.886;8.074;2023-07-31T06:30:31;8.50;;;3.17;;
10894;SDS011;5500;49.886;8.074;2023-07-31T06:32:58;8.70;;;2.70;;
10894;SDS011;5500;49.886;8.074;2023-07-31T06:35:27;7.97;;;3.10;;
10894;SDS011;5500;49.886;8.074;2023-07-31T06:37:55;5.67;;;2.60;;
10894;SDS011;5500;49.886;8.074;2023-07-31T06:40:24;6.43;;;3.00;;
10894;SDS011;5500;49.886;8.074;2023-07-31T06:42:52;4.53;;;2.97;;
10894;SDS011;5500;49.886;8.074;2023-07-31T06:45:20;6.40;;;2.80;;
10894;SDS011;5500;49.886;8.074;2023-07-31T06:47:48;4.53;;;2.73;;
10894;SDS011;5500;49.886;8.074;2023-07-31T06:50:17;6.73;;;3.20;;
10894;SDS011;5500;49.886;8.074;2023-07-31T06:52:46;6.87;;;2.80;;
10894;SDS011;5500;49.886;8.074;2023-07-31T06:55:17;4.40;;;2.83;;
10894;SDS011;5500;49.886;8.074;2023-07-31T06:57:49;4.77;;;2.73;;
10894;SDS011;5500;49.886;8.074;2023-07-31T07:00:18;9.07;;;3.47;;
10894;SDS011;5500;49.886;8.074;2023-07-31T07:02:47;8.53;;;2.70;;
10894;SDS011;5500;49.886;8.074;2023-07-31T07:05:15;4.23;;;2.80;;
10894;SDS011;5500;49.886;8.074;2023-07-31T07:07:44;5.60;;;2.77;;
10894;SDS011;5500;49.886;8.074;2023-07-31T07:10:17;5.67;;;2.70;;
10894;SDS011;5500;49.886;8.074;2023-07-31T07:12:48;8.00;;;3.03;;
10894;SDS011;5500;49.886;8.074;2023-07-31T07:15:16;5.33;;;3.00;;
10894;SDS011;5500;49.886;8.074;2023-07-31T07:17:44;4.83;;;2.90;;
10894;SDS011;5500;49.886;8.074;2023-07-31T07:20:13;4.27;;;2.63;;
10894;SDS011;5500;49.886;8.074;2023-07-31T07:22:41;7.00;;;3.30;;
10894;SDS011;5500;49.886;8.074;2023-07-31T07:25:10;3.90;;;2.50;;
10894;SDS011;5500;49.886;8.074;2023-07-31T07:27:38;6.67;;;3.10;;
10894;SDS011;5500;49.886;8.074;2023-07-31T07:30:06;6.57;;;3.23;;
10894;SDS011;5500;49.886;8.074;2023-07-31T07:32:35;4.70;;;2.87;;
10894;SDS011;5500;49.886;8.074;2023-07-31T07:35:03;7.20;;;3.23;;
10894;SDS011;5500;49.886;8.074;2023-07-31T07:37:31;5.70;;;2.97;;
10894;SDS011;5500;49.886;8.074;2023-07-31T07:40:00;6.73;;;2.43;;
10894;SDS011;5500;49.886;8.074;2023-07-31T07:42:29;7.17;;;2.90;;
10894;SDS011;5500;49.886;8.074;2023-07-31T07:44:57;5.37;;;3.00;;
10894;SDS011;5500;49.886;8.074;2023-07-31T07:47:24;6.43;;;3.23;;
10894;SDS011;5500;49.886;8.074;2023-07-31T07:49:54;4.67;;;2.53;;
10894;SDS011;5500;49.886;8.074;2023-07-31T07:52:22;7.43;;;3.00;;
10894;SDS011;5500;49.886;8.074;2023-07-31T07:54:51;6.83;;;3.00;;
10894;SDS011;5500;49.886;8.074;2023-07-31T07:57:19;10.43;;;3.57;;
10894;SDS011;5500;49.886;8.074;2023-07-31T07:59:48;4.67;;;2.67;;
10894;SDS011;5500;49.886;8.074;2023-07-31T08:02:16;7.53;;;2.90;;
10894;SDS011;5500;49.886;8.074;2023-07-31T08:04:44;6.63;;;3.30;;
10894;SDS011;5500;49.886;8.074;2023-07-31T08:07:11;10.23;;;3.20;;
10894;SDS011;5500;49.886;8.074;2023-07-31T08:09:39;6.17;;;2.70;;
10894;SDS011;5500;49.886;8.074;2023-07-31T08:12:07;3.67;;;2.70;;
10894;SDS011;5500;49.886;8.074;2023-07-31T08:14:35;5.23;;;2.67;;
10894;SDS011;5500;49.886;8.074;2023-07-31T08:17:04;4.80;;;2.87;;
10894;SDS011;5500;49.886;8.074;2023-07-31T08:19:32;5.90;;;2.83;;
10894;SDS011;5500;49.886;8.074;2023-07-31T08:22:00;8.47;;;2.57;;
10894;SDS011;5500;49.886;8.074;2023-07-31T08:24:28;5.07;;;2.83;;
10894;SDS011;5500;49.886;8.074;2023-07-31T08:26:56;7.00;;;2.70;;
10894;SDS011;5500;49.886;8.074;2023-07-31T08:29:24;6.03;;;2.40;;
10894;SDS011;5500;49.886;8.074;2023-07-31T08:31:52;5.83;;;2.77;;
10894;SDS011;5500;49.886;8.074;2023-07-31T08:34:21;6.33;;;2.77;;
10894;SDS011;5500;49.886;8.074;2023-07-31T08:36:49;6.53;;;2.57;;
10894;SDS011;5500;49.886;8.074;2023-07-31T08:39:17;6.47;;;2.97;;
10894;SDS011;5500;49.886;8.074;2023-07-31T08:41:44;6.00;;;2.87;;
10894;SDS011;5500;49.886;8.074;2023-07-31T08:44:12;5.37;;;2.80;;
10894;SDS011;5500;49.886;8.074;2023-07-31T08:46:41;6.73;;;3.00;;
10894;SDS011;5500;49.886;8.074;2023-07-31T08:49:09;4.67;;;2.27;;
10894;SDS011;5500;49.886;8.074;2023-07-31T08:51:39;6.20;;;2.90;;
10894;SDS011;5500;49.886;8.074;2023-07-31T08:54:08;4.10;;;2.47;;
10894;SDS011;5500;49.886;8.074;2023-07-31T08:56:36;5.93;;;2.67;;
10894;SDS011;5500;49.886;8.074;2023-07-31T08:59:04;5.57;;;2.90;;
10894;SDS011;5500;49.886;8.074;2023-07-31T09:01:33;4.57;;;2.47;;
10894;SDS011;5500;49.886;8.074;2023-07-31T09:04:05;6.00;;;2.57;;
10894;SDS011;5500;49.886;8.074;2023-07-31T09:06:33;4.23;;;2.70;;
10894;SDS011;5500;49.886;8.074;2023-07-31T09:09:03;6.73;;;3.07;;
10894;SDS011;5500;49.886;8.074;2023-07-31T09:11:31;5.47;;;2.70;;
10894;SDS011;5500;49.886;8.074;2023-07-31T09:13:58;10.10;;;3.40;;
10894;SDS011;5500;49.886;8.074;2023-07-31T09:16:28;5.43;;;2.80;;
10894;SDS011;5500;49.886;8.074;2023-07-31T09:18:58;5.70;;;2.70;;
10894;SDS011;5500;49.886;8.074;2023-07-31T09:21:28;5.67;;;3.00;;
10894;SDS011;5500;49.886;8.074;2023-07-31T09:23:56;6.10;;;3.13;;
10894;SDS011;5500;49.886;8.074;2023-07-31T09:26:32;8.07;;;2.90;;
10894;SDS011;5500;49.886;8.074;2023-07-31T09:29:01;4.50;;;2.80;;
10894;SDS011;5500;49.886;8.074;2023-07-31T09:31:32;7.27;;;3.23;;
10894;SDS011;5500;49.886;8.074;2023-07-31T09:34:01;7.40;;;3.07;;
10894;SDS011;5500;49.886;8.074;2023-07-31T09:36:29;7.83;;;2.73;;
10894;SDS011;5500;49.886;8.074;2023-07-31T09:39:01;4.20;;;2.17;;
10894;SDS011;5500;49.886;8.074;2023-07-31T09:41:29;11.53;;;2.90;;
10894;SDS011;5500;49.886;8.074;2023-07-31T09:43:59;3.73;;;2.83;;
10894;SDS011;5500;49.886;8.074;2023-07-31T09:46:27;5.00;;;2.90;;
10894;SDS011;5500;49.886;8.074;2023-07-31T09:49:03;5.77;;;2.90;;
10894;SDS011;5500;49.886;8.074;2023-07-31T09:51:32;7.07;;;3.03;;
10894;SDS011;5500;49.886;8.074;2023-07-31T09:54:08;4.43;;;2.80;;
10894;SDS011;5500;49.886;8.074;2023-07-31T09:56:41;4.73;;;3.17;;
10894;SDS011;5500;49.886;8.074;2023-07-31T09:59:13;4.83;;;2.93;;
10894;SDS011;5500;49.886;8.074;2023-07-31T10:01:42;5.60;;;2.63;;
10894;SDS011;5500;49.886;8.074;2023-07-31T10:04:12;6.57;;;3.03;;
10894;SDS011;5500;49.886;8.074;2023-07-31T10:06:42;7.53;;;2.93;;
10894;SDS011;5500;49.886;8.074;2023-07-31T10:09:11;5.97;;;3.20;;
10894;SDS011;5500;49.886;8.074;2023-07-31T10:11:41;7.17;;;2.90;;
10894;SDS011;5500;49.886;8.074;2023-07-31T10:14:11;7.43;;;3.13;;
10894;SDS011;5500;49.886;8.074;2023-07-31T10:16:39;7.40;;;3.23;;
10894;SDS011;5500;49.886;8.074;2023-07-31T10:19:09;6.20;;;2.90;;
10894;SDS011;5500;49.886;8.074;2023-07-31T10:21:37;5.30;;;2.90;;
10894;SDS011;5500;49.886;8.074;2023-07-31T10:24:06;6.20;;;3.00;;
10894;SDS011;5500;49.886;8.074;2023-07-31T10:26:34;5.73;;;3.03;;
10894;SDS011;5500;49.886;8.074;2023-07-31T10:29:05;5.83;;;2.70;;
10894;SDS011;5500;49.886;8.074;2023-07-31T10:31:33;4.70;;;2.83;;
10894;SDS011;5500;49.886;8.074;2023-07-31T10:34:01;6.33;;;3.30;;
10894;SDS011;5500;49.886;8.074;2023-07-31T10:36:29;10.07;;;3.23;;
10894;SDS011;5500;49.886;8.074;2023-07-31T10:38:57;6.23;;;2.77;;
10894;SDS011;5500;49.886;8.074;2023-07-31T10:41:28;5.30;;;2.90;;
10894;SDS011;5500;49.886;8.074;2023-07-31T10:43:57;5.67;;;2.90;;
10894;SDS011;5500;49.886;8.074;2023-07-31T10:46:26;4.40;;;2.80;;
10894;SDS011;5500;49.886;8.074;2023-07-31T10:48:58;4.47;;;2.83;;
10894;SDS011;5500;49.886;8.074;2023-07-31T10:51:34;4.13;;;2.33;;
10894;SDS011;5500;49.886;8.074;2023-07-31T10:54:12;5.43;;;3.07;;
10894;SDS011;5500;49.886;8.074;2023-07-31T10:56:40;5.90;;;3.10;;
10894;SDS011;5500;49.886;8.074;2023-07-31T10:59:12;6.07;;;3.50;;
10894;SDS011;5500;49.886;8.074;2023-07-31T11:01:50;6.03;;;2.83;;
10894;SDS011;5500;49.886;8.074;2023-07-31T11:04:22;4.80;;;3.10;;
10894;SDS011;5500;49.886;8.074;2023-07-31T11:06:57;4.43;;;2.70;;
10894;SDS011;5500;49.886;8.074;2023-07-31T11:09:27;6.00;;;2.97;;
10894;SDS011;5500;49.886;8.074;2023-07-31T11:11:56;6.40;;;3.50;;
10894;SDS011;5500;49.886;8.074;2023-07-31T11:14:23;5.77;;;2.70;;
10894;SDS011;5500;49.886;8.074;2023-07-31T11:16:52;4.60;;;2.97;;
10894;SDS011;5500;49.886;8.074;2023-07-31T11:19:21;9.03;;;3.10;;
10894;SDS011;5500;49.886;8.074;2023-07-31T11:21:50;5.10;;;3.07;;
10894;SDS011;5500;49.886;8.074;2023-07-31T11:24:19;5.07;;;2.90;;
10894;SDS011;5500;49.886;8.074;2023-07-31T11:26:48;7.40;;;3.07;;
10894;SDS011;5500;49.886;8.074;2023-07-31T11:29:17;6.77;;;2.90;;
10894;SDS011;5500;49.886;8.074;2023-07-31T11:31:46;6.43;;;3.47;;
10894;SDS011;5500;49.886;8.074;2023-07-31T11:34:16;6.33;;;2.73;;
10894;SDS011;5500;49.886;8.074;2023-07-31T11:36:53;5.63;;;2.97;;
10894;SDS011;5500;49.886;8.074;2023-07-31T11:39:21;7.77;;;3.53;;
10894;SDS011;5500;49.886;8.074;2023-07-31T11:41:49;5.43;;;2.93;;
10894;SDS011;5500;49.886;8.074;2023-07-31T11:44:17;6.07;;;2.87;;
10894;SDS011;5500;49.886;8.074;2023-07-31T11:46:53;4.40;;;2.40;;
10894;SDS011;5500;49.886;8.074;2023-07-31T11:49:25;5.47;;;3.20;;
10894;SDS011;5500;49.886;8.074;2023-07-31T11:51:54;5.47;;;3.20;;
10894;SDS011;5500;49.886;8.074;2023-07-31T11:54:22;6.83;;;2.63;;
10894;SDS011;5500;49.886;8.074;2023-07-31T11:56:49;4.43;;;3.07;;
10894;SDS011;5500;49.886;8.074;2023-07-31T11:59:21;6.87;;;3.07;;
10894;SDS011;5500;49.886;8.074;2023-07-31T12:01:48;7.37;;;5.73;;
10894;SDS011;5500;49.886;8.074;2023-07-31T12:04:20;9.17;;;7.60;;
10894;SDS011;5500;49.886;8.074;2023-07-31T12:06:52;10.47;;;8.63;;
10894;SDS011;5500;49.886;8.074;2023-07-31T12:09:24;8.37;;;4.83;;
10894;SDS011;5500;49.886;8.074;2023-07-31T12:11:53;7.43;;;3.03;;
10894;SDS011;5500;49.886;8.074;2023-07-31T12:14:20;4.57;;;2.40;;
10894;SDS011;5500;49.886;8.074;2023-07-31T12:16:52;6.00;;;3.53;;
10894;SDS011;5500;49.886;8.074;2023-07-31T12:19:22;5.20;;;3.00;;
10894;SDS011;5500;49.886;8.074;2023-07-31T12:21:52;6.93;;;3.30;;
10894;SDS011;5500;49.886;8.074;2023-07-31T12:24:19;4.17;;;2.97;;
10894;SDS011;5500;49.886;8.074;2023-07-31T12:26:48;4.03;;;2.90;;
10894;SDS011;5500;49.886;8.074;2023-07-31T12:29:16;5.60;;;2.90;;
10894;SDS011;5500;49.886;8.074;2023-07-31T12:31:44;5.63;;;3.30;;
10894;SDS011;5500;49.886;8.074;2023-07-31T12:34:15;6.83;;;3.03;;
10894;SDS011;5500;49.886;8.074;2023-07-31T12:36:44;4.30;;;2.83;;
10894;SDS011;5500;49.886;8.074;2023-07-31T12:39:13;5.80;;;2.83;;
10894;SDS011;5500;49.886;8.074;2023-07-31T12:41:41;4.00;;;2.50;;
10894;SDS011;5500;49.886;8.074;2023-07-31T12:44:09;5.37;;;2.90;;
10894;SDS011;5500;49.886;8.074;2023-07-31T12:46:37;4.20;;;2.70;;
10894;SDS011;5500;49.886;8.074;2023-07-31T12:49:06;3.73;;;2.50;;
10894;SDS011;5500;49.886;8.074;2023-07-31T12:51:34;5.13;;;2.43;;
10894;SDS011;5500;49.886;8.074;2023-07-31T12:54:01;4.90;;;2.77;;
10894;SDS011;5500;49.886;8.074;2023-07-31T12:56:31;3.33;;;2.30;;
10894;SDS011;5500;49.886;8.074;2023-07-31T12:58:59;4.33;;;2.60;;
10894;SDS011;5500;49.886;8.074;2023-07-31T13:01:27;5.30;;;3.03;;
10894;SDS011;5500;49.886;8.074;2023-07-31T13:03:55;4.53;;;2.30;;
10894;SDS011;5500;49.886;8.074;2023-07-31T13:06:23;6.13;;;2.67;;
10894;SDS011;5500;49.886;8.074;2023-07-31T13:08:51;3.07;;;2.40;;
10894;SDS011;5500;49.886;8.074;2023-07-31T13:11:19;3.90;;;2.73;;
10894;SDS011;5500;49.886;8.074;2023-07-31T13:13:49;7.70;;;3.37;;
10894;SDS011;5500;49.886;8.074;2023-07-31T13:16:16;5.03;;;3.10;;
10894;SDS011;5500;49.886;8.074;2023-07-31T13:18:44;5.70;;;3.10;;
10894;SDS011;5500;49.886;8.074;2023-07-31T13:21:12;3.20;;;2.90;;
10894;SDS011;5500;49.886;8.074;2023-07-31T13:23:40;8.00;;;3.20;;
10894;SDS011;5500;49.886;8.074;2023-07-31T13:26:08;6.70;;;2.60;;
10894;SDS011;5500;49.886;8.074;2023-07-31T13:28:35;4.37;;;2.60;;
10894;SDS011;5500;49.886;8.074;2023-07-31T13:31:05;4.53;;;2.47;;
10894;SDS011;5500;49.886;8.074;2023-07-31T13:33:33;4.17;;;2.77;;
10894;SDS011;5500;49.886;8.074;2023-07-31T13:36:04;4.30;;;2.87;;
10894;SDS011;5500;49.886;8.074;2023-07-31T13:38:32;4.37;;;2.87;;
10894;SDS011;5500;49.886;8.074;2023-07-31T13:41:00;6.33;;;2.90;;
10894;SDS011;5500;49.886;8.074;2023-07-31T13:43:28;3.80;;;2.80;;
10894;SDS011;5500;49.886;8.074;2023-07-31T13:45:55;5.20;;;2.60;;
10894;SDS011;5500;49.886;8.074;2023-07-31T13:48:25;7.10;;;3.07;;
10894;SDS011;5500;49.886;8.074;2023-07-31T13:50:53;4.47;;;2.70;;
10894;SDS011;5500;49.886;8.074;2023-07-31T13:53:21;5.77;;;2.80;;
10894;SDS011;5500;49.886;8.074;2023-07-31T13:55:49;5.10;;;2.87;;
10894;SDS011;5500;49.886;8.074;2023-07-31T13:58:17;8.50;;;3.13;;
10894;SDS011;5500;49.886;8.074;2023-07-31T14:00:45;4.37;;;2.83;;
10894;SDS011;5500;49.886;8.074;2023-07-31T14:03:13;3.30;;;2.63;;
10894;SDS011;5500;49.886;8.074;2023-07-31T14:05:42;6.10;;;2.63;;
10894;SDS011;5500;49.886;8.074;2023-07-31T14:08:10;4.77;;;2.80;;
10894;SDS011;5500;49.886;8.074;2023-07-31T14:10:38;5.27;;;2.67;;
10894;SDS011;5500;49.886;8.074;2023-07-31T14:13:06;4.60;;;2.30;;
10894;SDS011;5500;49.886;8.074;2023-07-31T14:15:34;5.40;;;2.43;;
10894;SDS011;5500;49.886;8.074;2023-07-31T14:18:02;5.50;;;2.27;;
10894;SDS011;5500;49.886;8.074;2023-07-31T14:20:30;6.17;;;2.10;;
10894;SDS011;5500;49.886;8.074;2023-07-31T14:23:00;5.67;;;2.40;;
10894;SDS011;5500;49.886;8.074;2023-07-31T14:25:28;4.80;;;2.27;;
10894;SDS011;5500;49.886;8.074;2023-07-31T14:27:56;2.80;;;1.73;;
10894;SDS011;5500;49.886;8.074;2023-07-31T14:30:24;3.87;;;2.13;;
10894;SDS011;5500;49.886;8.074;2023-07-31T14:32:52;2.37;;;1.83;;
10894;SDS011;5500;49.886;8.074;2023-07-31T14:35:20;7.37;;;2.27;;
10894;SDS011;5500;49.886;8.074;2023-07-31T14:37:48;3.57;;;2.40;;
10894;SDS011;5500;49.886;8.074;2023-07-31T14:40:18;4.57;;;1.90;;
10894;SDS011;5500;49.886;8.074;2023-07-31T14:42:46;4.13;;;2.27;;
10894;SDS011;5500;49.886;8.074;2023-07-31T14:45:14;4.50;;;2.40;;
10894;SDS011;5500;49.886;8.074;2023-07-31T14:47:42;2.20;;;1.70;;
10894;SDS011;5500;49.886;8.074;2023-07-31T14:50:10;2.47;;;1.93;;
10894;SDS011;5500;49.886;8.074;2023-07-31T14:52:38;4.30;;;2.27;;
10894;SDS011;5500;49.886;8.074;2023-07-31T14:55:06;2.47;;;1.90;;
10894;SDS011;5500;49.886;8.074;2023-07-31T14:57:36;2.73;;;1.60;;
10894;SDS011;5500;49.886;8.074;2023-07-31T15:00:04;2.13;;;1.67;;
10894;SDS011;5500;49.886;8.074;2023-07-31T15:02:36;2.57;;;1.53;;
10894;SDS011;5500;49.886;8.074;2023-07-31T15:05:04;2.57;;;2.00;;
10894;SDS011;5500;49.886;8.074;2023-07-31T15:07:33;4.43;;;2.00;;
10894;SDS011;5500;49.886;8.074;2023-07-31T15:10:02;3.57;;;1.80;;